createdAt,value
2022-09-13T00:01:38.267Z,12.48
2022-09-13T00:04:05.396Z,12.47
2022-09-13T00:06:32.487Z,12.35
2022-09-13T00:09:00.849Z,12.46
2022-09-13T00:11:30.405Z,12.47
2022-09-13T00:13:58.556Z,12.48
2022-09-13T00:16:28.188Z,12.47
2022-09-13T00:18:56.659Z,12.01
2022-09-13T00:21:24.810Z,12.47
2022-09-13T00:23:54.385Z,12.35
2022-09-13T00:26:27.593Z,12.47
2022-09-13T00:28:57.707Z,12.48
2022-09-13T00:31:27.755Z,12.44
2022-09-13T00:33:55.374Z,12.43
2022-09-13T00:36:22.379Z,12.30
2022-09-13T00:38:49.477Z,12.38
2022-09-13T00:41:19.044Z,12.23
2022-09-13T00:43:54.177Z,12.30
2022-09-13T00:46:23.905Z,12.24
2022-09-13T00:48:56.434Z,12.13
2022-09-13T00:51:23.943Z,11.90
2022-09-13T00:53:55.569Z,12.04
2022-09-13T00:56:54.904Z,12.18
2022-09-13T00:59:27.352Z,12.15
2022-09-13T01:01:57.164Z,12.13
2022-09-13T01:04:27.924Z,11.88
2022-09-13T01:06:58.802Z,11.79
2022-09-13T01:09:27.126Z,12.07
2022-09-13T01:12:04.737Z,12.08
2022-09-13T01:14:33.861Z,12.05
2022-09-13T01:17:01.441Z,12.05
2022-09-13T01:19:28.704Z,11.91
2022-09-13T01:22:14.562Z,12.05
2022-09-13T01:25:00.495Z,12.06
2022-09-13T01:27:27.506Z,12.06
2022-09-13T01:30:13.017Z,12.01
2022-09-13T01:32:49.752Z,11.95
2022-09-13T01:35:38.807Z,11.96
2022-09-13T01:38:27.145Z,11.93
2022-09-13T01:41:23.316Z,11.90
2022-09-13T01:44:00.742Z,11.84
2022-09-13T01:46:58.520Z,11.89
2022-09-13T01:49:34.366Z,11.80
2022-09-13T01:52:13.924Z,11.68
2022-09-13T01:54:59.302Z,11.78
2022-09-13T01:57:36.474Z,11.60
2022-09-13T02:00:09.484Z,11.77
2022-09-13T02:02:46.252Z,11.37
2022-09-13T02:05:42.364Z,11.79
2022-09-13T02:08:29.787Z,11.72
2022-09-13T02:11:15.127Z,11.72
2022-09-13T02:13:48.280Z,11.81
2022-09-13T02:16:34.274Z,11.81
2022-09-13T02:19:10.962Z,11.79
2022-09-13T02:21:44.054Z,11.81
2022-09-13T02:24:17.350Z,11.83
2022-09-13T02:26:47.430Z,11.84
2022-09-13T02:29:18.095Z,11.88
2022-09-13T02:31:51.593Z,11.77
2022-09-13T02:34:23.365Z,11.92
2022-09-13T02:36:55.046Z,11.96
2022-09-13T02:39:24.849Z,11.91
2022-09-13T02:42:12.836Z,11.83
2022-09-13T02:44:51.008Z,11.89
2022-09-13T02:47:54.164Z,11.88
2022-09-13T02:50:38.652Z,11.88
2022-09-13T02:53:29.792Z,11.90
2022-09-13T02:56:45.205Z,11.92
2022-09-13T02:59:21.165Z,11.70
2022-09-13T03:02:04.906Z,11.88
2022-09-13T03:04:33.784Z,11.85
2022-09-13T03:07:04.379Z,11.74
2022-09-13T03:09:33.039Z,11.88
2022-09-13T03:12:35.480Z,11.87
2022-09-13T03:15:41.182Z,11.88
2022-09-13T03:18:40.347Z,11.86
2022-09-13T03:21:07.844Z,11.82
2022-09-13T03:24:05.592Z,11.81
2022-09-13T03:26:35.582Z,11.79
2022-09-13T03:29:13.171Z,11.71
2022-09-13T03:31:49.677Z,11.80
2022-09-13T03:34:25.541Z,11.81
2022-09-13T03:37:00.013Z,11.80
2022-09-13T03:39:53.015Z,11.78
2022-09-13T03:42:28.842Z,11.81
2022-09-13T03:44:58.201Z,11.82
2022-09-13T03:47:28.942Z,11.75
2022-09-13T03:49:57.307Z,11.67
2022-09-13T03:52:25.162Z,11.12
2022-09-13T03:54:53.219Z,11.81
2022-09-13T03:57:22.915Z,11.70
2022-09-13T03:59:55.254Z,11.83
2022-09-13T04:02:24.513Z,11.83
2022-09-13T04:04:52.175Z,11.80
2022-09-13T04:07:24.283Z,11.76
2022-09-13T04:09:51.928Z,11.78
2022-09-13T04:12:19.422Z,11.78
2022-09-13T04:14:46.975Z,11.77
2022-09-13T04:17:14.653Z,11.70
2022-09-13T04:19:42.282Z,11.63
2022-09-13T04:22:09.603Z,11.79
2022-09-13T04:24:36.864Z,11.63
2022-09-13T04:27:05.086Z,11.79
2022-09-13T04:29:32.933Z,11.81
2022-09-13T04:32:00.546Z,11.81
2022-09-13T04:34:28.362Z,11.82
2022-09-13T04:36:55.865Z,11.82
2022-09-13T04:39:24.153Z,11.78
2022-09-13T04:41:54.935Z,11.81
2022-09-13T04:44:24.788Z,11.76
2022-09-13T04:46:52.138Z,11.74
2022-09-13T04:49:20.364Z,11.82
2022-09-13T04:51:48.101Z,11.79
2022-09-13T04:54:16.450Z,11.85
2022-09-13T04:56:47.383Z,11.86
2022-09-13T04:59:15.303Z,11.93
2022-09-13T05:01:43.068Z,11.56
2022-09-13T05:04:11.110Z,11.59
2022-09-13T05:06:38.964Z,12.07
2022-09-13T05:09:06.801Z,12.08
2022-09-13T05:11:34.016Z,12.15
2022-09-13T05:14:01.844Z,12.23
2022-09-13T05:16:31.677Z,12.27
2022-09-13T05:18:59.545Z,12.29
2022-09-13T05:21:30.613Z,12.16
2022-09-13T05:23:58.634Z,12.16
2022-09-13T05:26:29.942Z,12.39
2022-09-13T05:28:57.733Z,12.34
2022-09-13T05:31:31.308Z,12.38
2022-09-13T05:34:02.174Z,12.44
2022-09-13T05:36:29.977Z,12.43
2022-09-13T05:39:25.957Z,12.49
2022-09-13T05:41:46.194Z,12.51
2022-09-13T05:44:14.041Z,12.55
2022-09-13T05:46:43.034Z,12.61
2022-09-13T05:49:12.648Z,12.60
2022-09-13T05:51:40.006Z,12.74
2022-09-13T05:54:07.158Z,12.72
2022-09-13T05:56:34.279Z,12.99
2022-09-13T05:59:01.484Z,13.07
2022-09-13T06:01:29.723Z,13.11
2022-09-13T06:03:58.567Z,13.13
2022-09-13T06:06:26.927Z,13.15
2022-09-13T06:08:55.942Z,13.22
2022-09-13T06:11:24.318Z,13.24
2022-09-13T06:13:51.643Z,13.25
2022-09-13T06:16:19.054Z,13.30
2022-09-13T06:18:46.211Z,13.36
2022-09-13T06:21:19.735Z,13.40
2022-09-13T06:23:48.423Z,13.47
2022-09-13T06:26:18.084Z,13.15
2022-09-13T06:28:58.371Z,13.51
2022-09-13T06:31:27.860Z,13.46
2022-09-13T06:34:01.184Z,13.62
2022-09-13T06:36:28.466Z,13.67
2022-09-13T06:38:55.915Z,13.62
2022-09-13T06:41:25.173Z,13.84
2022-09-13T06:43:58.119Z,13.97
2022-09-13T06:46:26.890Z,14.05
2022-09-13T06:48:54.692Z,14.19
2022-09-13T06:51:24.136Z,14.28
2022-09-13T06:53:53.736Z,14.34
2022-09-13T06:56:23.718Z,14.36
2022-09-13T06:58:55.403Z,14.44
2022-09-13T07:01:23.903Z,14.34
2022-09-13T07:03:57.986Z,14.58
2022-09-13T07:06:27.889Z,14.68
2022-09-13T07:08:56.865Z,14.76
2022-09-13T07:11:26.595Z,14.87
2022-09-13T07:13:56.046Z,14.98
2022-09-13T07:16:27.344Z,15.11
2022-09-13T07:18:56.743Z,15.17
2022-09-13T07:21:24.157Z,15.48
2022-09-13T07:23:52.965Z,15.70
2022-09-13T07:26:20.800Z,15.76
2022-09-13T07:28:50.987Z,15.69
2022-09-13T07:31:26.943Z,15.92
2022-09-13T07:33:56.235Z,16.02
2022-09-13T07:36:23.605Z,16.09
2022-09-13T07:38:51.493Z,16.14
2022-09-13T07:41:21.147Z,16.10
2022-09-13T07:43:48.526Z,16.22
2022-09-13T07:46:18.126Z,16.09
2022-09-13T07:48:46.945Z,16.35
2022-09-13T07:51:16.012Z,16.45
2022-09-13T07:53:44.849Z,16.12
2022-09-13T07:56:13.685Z,16.60
2022-09-13T07:58:42.986Z,16.53
2022-09-13T08:01:20.249Z,16.69
2022-09-13T08:03:59.344Z,16.71
2022-09-13T08:06:28.552Z,16.72
2022-09-13T08:08:56.149Z,16.75
2022-09-13T08:11:26.527Z,16.73
2022-09-13T08:13:53.930Z,16.84
2022-09-13T08:16:22.692Z,16.47
2022-09-13T08:18:52.162Z,17.01
2022-09-13T08:21:19.426Z,17.12
2022-09-13T08:23:46.982Z,17.10
2022-09-13T08:26:14.740Z,17.15
2022-09-13T08:28:43.377Z,17.10
2022-09-13T08:31:17.396Z,17.11
2022-09-13T08:33:46.878Z,17.10
2022-09-13T08:36:15.613Z,17.10
2022-09-13T08:38:49.887Z,16.85
2022-09-13T08:41:28.761Z,17.07
2022-09-13T08:44:04.041Z,17.06
2022-09-13T08:46:45.033Z,17.05
2022-09-13T08:49:18.976Z,16.64
2022-09-13T08:51:53.207Z,17.08
2022-09-13T08:54:20.852Z,17.07
2022-09-13T08:57:06.921Z,17.11
2022-09-13T08:59:52.015Z,17.10
2022-09-13T09:02:46.713Z,17.17
2022-09-13T09:05:33.418Z,17.20
2022-09-13T09:08:07.332Z,17.22
2022-09-13T09:10:41.633Z,17.05
2022-09-13T09:13:16.166Z,17.22
2022-09-13T09:16:12.002Z,17.20
2022-09-13T09:18:43.564Z,17.20
2022-09-13T09:21:16.572Z,17.23
2022-09-13T09:23:54.665Z,17.27
2022-09-13T09:26:31.066Z,17.28
2022-09-13T09:29:00.963Z,17.29
2022-09-13T09:31:42.557Z,17.23
2022-09-13T09:34:23.139Z,17.22
2022-09-13T09:36:53.030Z,17.24
2022-09-13T09:39:20.067Z,16.70
2022-09-13T09:41:47.491Z,17.31
2022-09-13T09:44:27.853Z,17.18
2022-09-13T09:47:03.504Z,17.27
2022-09-13T09:49:58.463Z,17.23
2022-09-13T09:52:44.704Z,17.13
2022-09-13T09:55:46.030Z,17.05
2022-09-13T09:58:17.232Z,17.05
2022-09-13T10:00:52.656Z,16.99
2022-09-13T10:03:32.022Z,17.05
2022-09-13T10:06:11.608Z,16.98
2022-09-13T10:08:41.466Z,17.11
2022-09-13T10:11:10.002Z,17.12
2022-09-13T10:13:38.770Z,17.02
2022-09-13T10:16:27.332Z,17.21
2022-09-13T10:18:54.677Z,17.15
2022-09-13T10:21:27.420Z,17.30
2022-09-13T10:24:18.386Z,17.33
2022-09-13T10:26:46.232Z,17.33
2022-09-13T10:29:17.652Z,17.33
2022-09-13T10:31:50.184Z,17.35
2022-09-13T10:34:22.934Z,17.36
2022-09-13T10:37:15.215Z,17.39
2022-09-13T10:40:00.923Z,17.35
2022-09-13T10:42:30.154Z,17.38
2022-09-13T10:45:20.944Z,17.46
2022-09-13T10:47:53.263Z,17.53
2022-09-13T10:50:25.092Z,17.54
2022-09-13T10:52:54.253Z,17.53
2022-09-13T10:55:30.776Z,17.46
2022-09-13T10:58:04.014Z,17.60
2022-09-13T11:00:46.369Z,17.69
2022-09-13T11:03:25.807Z,17.77
2022-09-13T11:06:02.231Z,17.86
2022-09-13T11:08:42.172Z,17.89
2022-09-13T11:11:09.336Z,18.03
2022-09-13T11:13:47.038Z,18.01
2022-09-13T11:16:35.343Z,18.13
2022-09-13T11:19:08.246Z,18.12
2022-09-13T11:21:38.563Z,18.07
2022-09-13T11:24:27.062Z,18.02
2022-09-13T11:27:20.337Z,17.97
2022-09-13T11:30:02.174Z,17.88
2022-09-13T11:32:44.863Z,17.96
2022-09-13T11:35:48.744Z,18.00
2022-09-13T11:38:54.208Z,17.99
2022-09-13T11:41:54.689Z,18.04
2022-09-13T11:44:33.788Z,18.15
2022-09-13T11:47:21.394Z,18.19
2022-09-13T11:50:03.661Z,18.25
2022-09-13T11:53:07.647Z,18.26
2022-09-13T11:55:42.526Z,18.26
2022-09-13T11:58:18.295Z,18.26
2022-09-13T12:00:51.144Z,18.07
2022-09-13T12:03:28.959Z,18.22
2022-09-13T12:06:01.933Z,18.21
2022-09-13T12:09:09.996Z,18.15
2022-09-13T12:11:44.364Z,18.20
2022-09-13T12:14:17.352Z,18.23
2022-09-13T12:16:52.709Z,18.26
2022-09-13T12:19:25.721Z,18.29
2022-09-13T12:21:57.663Z,18.32
2022-09-13T12:24:45.424Z,18.33
2022-09-13T12:27:43.203Z,18.33
2022-09-13T12:30:17.863Z,18.27
2022-09-13T12:32:47.646Z,18.35
2022-09-13T12:35:34.924Z,18.23
2022-09-13T12:38:35.792Z,18.29
2022-09-13T12:41:43.310Z,18.31
2022-09-13T12:44:34.724Z,18.32
2022-09-13T12:47:14.054Z,18.33
2022-09-13T12:49:50.192Z,18.33
2022-09-13T12:52:36.883Z,18.36
2022-09-13T12:55:56.750Z,18.32
2022-09-13T12:58:32.572Z,18.38
2022-09-13T13:01:12.171Z,18.39
2022-09-13T13:04:01.827Z,18.37
2022-09-13T13:06:31.329Z,18.34
2022-09-13T13:09:02.395Z,18.31
2022-09-13T13:11:41.977Z,18.32
2022-09-13T13:14:30.329Z,18.28
2022-09-13T13:17:45.937Z,18.32
2022-09-13T13:20:58.342Z,18.38
2022-09-13T13:23:31.377Z,18.46
2022-09-13T13:26:13.616Z,18.52
2022-09-13T13:28:47.685Z,18.59
2022-09-13T13:31:32.873Z,18.66
2022-09-13T13:34:34.809Z,18.63
2022-09-13T13:37:07.989Z,18.69
2022-09-13T13:39:46.750Z,18.71
2022-09-13T13:42:27.036Z,18.74
2022-09-13T13:44:54.034Z,18.72
2022-09-13T13:47:21.045Z,18.71
2022-09-13T13:49:53.205Z,18.69
2022-09-13T13:52:23.451Z,18.71
2022-09-13T13:55:04.592Z,18.70
2022-09-13T13:57:41.574Z,18.71
2022-09-13T14:00:27.115Z,18.50
2022-09-13T14:03:00.346Z,18.34
2022-09-13T14:05:45.962Z,18.63
2022-09-13T14:08:31.042Z,18.61
2022-09-13T14:11:19.943Z,18.55
2022-09-13T14:14:24.725Z,18.50
2022-09-13T14:17:15.353Z,18.50
2022-09-13T14:19:54.176Z,18.49
2022-09-13T14:22:22.366Z,18.46
2022-09-13T14:24:52.325Z,18.41
2022-09-13T14:27:27.084Z,18.38
2022-09-13T14:30:04.755Z,18.33
2022-09-13T14:32:42.849Z,18.30
2022-09-13T14:35:25.053Z,18.27
2022-09-13T14:37:52.402Z,18.23
2022-09-13T14:40:28.604Z,18.20
2022-09-13T14:42:56.887Z,18.23
2022-09-13T14:45:38.316Z,18.20
2022-09-13T14:48:10.491Z,18.20
2022-09-13T14:50:48.655Z,18.23
2022-09-13T14:53:28.242Z,18.27
2022-09-13T14:55:55.422Z,18.29
2022-09-13T14:58:37.822Z,18.26
2022-09-13T15:01:10.249Z,18.30
2022-09-13T15:03:41.404Z,18.10
2022-09-13T15:06:19.643Z,18.05
2022-09-13T15:08:48.279Z,18.26
2022-09-13T15:11:37.586Z,18.22
2022-09-13T15:14:21.701Z,18.28
2022-09-13T15:17:08.828Z,18.24
2022-09-13T15:19:39.070Z,18.25
2022-09-13T15:22:12.474Z,18.25
2022-09-13T15:24:44.752Z,18.26
2022-09-13T15:27:27.681Z,18.25
2022-09-13T15:30:06.294Z,18.27
2022-09-13T15:32:39.674Z,18.25
2022-09-13T15:35:30.361Z,18.16
2022-09-13T15:38:03.005Z,18.11
2022-09-13T15:40:41.225Z,18.17
2022-09-13T15:43:08.474Z,17.78
2022-09-13T15:45:35.616Z,17.93
2022-09-13T15:48:03.143Z,18.14
2022-09-13T15:50:33.468Z,18.10
2022-09-13T15:53:01.997Z,18.10
2022-09-13T15:55:31.170Z,17.88
2022-09-13T15:57:58.236Z,17.89
2022-09-13T16:00:28.591Z,18.05
2022-09-13T16:02:55.773Z,18.02
2022-09-13T16:05:22.993Z,18.01
2022-09-13T16:07:50.086Z,17.88
2022-09-13T16:10:21.391Z,17.98
2022-09-13T16:12:49.299Z,17.45
2022-09-13T16:15:17.137Z,17.97
2022-09-13T16:17:44.196Z,17.71
2022-09-13T16:20:17.531Z,17.75
2022-09-13T16:22:44.973Z,17.81
2022-09-13T16:25:15.834Z,17.93
2022-09-13T16:27:45.063Z,17.90
2022-09-13T16:30:20.125Z,17.82
2022-09-13T16:32:47.232Z,17.82
2022-09-13T16:35:16.099Z,17.83
2022-09-13T16:37:44.650Z,17.81
2022-09-13T16:40:11.980Z,17.73
2022-09-13T16:42:39.509Z,17.31
2022-09-13T16:45:07.183Z,17.67
2022-09-13T16:47:34.287Z,17.64
2022-09-13T16:50:01.571Z,17.73
2022-09-13T16:52:29.579Z,17.45
2022-09-13T16:54:57.434Z,17.48
2022-09-13T16:57:25.066Z,17.56
2022-09-13T16:59:53.349Z,17.70
2022-09-13T17:02:21.505Z,17.68
2022-09-13T17:04:48.845Z,17.65
2022-09-13T17:07:16.194Z,17.65
2022-09-13T17:09:43.340Z,17.47
2022-09-13T17:12:12.818Z,17.60
2022-09-13T17:14:42.953Z,17.57
2022-09-13T17:17:10.230Z,17.32
2022-09-13T17:19:37.493Z,17.41
2022-09-13T17:22:08.235Z,17.35
2022-09-13T17:24:37.513Z,17.26
2022-09-13T17:27:07.088Z,17.20
2022-09-13T17:29:35.317Z,17.15
2022-09-13T17:32:06.243Z,17.12
2022-09-13T17:34:34.915Z,17.07
2022-09-13T17:37:03.886Z,17.04
2022-09-13T17:39:31.474Z,17.04
2022-09-13T17:41:59.138Z,16.86
2022-09-13T17:44:26.427Z,16.97
2022-09-13T17:46:53.562Z,16.98
2022-09-13T17:49:20.819Z,16.91
2022-09-13T17:51:47.918Z,16.77
2022-09-13T17:54:15.268Z,16.89
2022-09-13T17:56:44.353Z,16.88
2022-09-13T17:59:12.881Z,16.89
2022-09-13T18:01:45.524Z,16.87
2022-09-13T18:04:14.602Z,16.81
2022-09-13T18:06:43.454Z,16.79
2022-09-13T18:09:11.626Z,16.82
2022-09-13T18:11:39.185Z,16.63
2022-09-13T18:14:07.315Z,16.69
2022-09-13T18:16:34.798Z,16.67
2022-09-13T18:19:02.113Z,16.83
2022-09-13T18:21:29.493Z,16.81
2022-09-13T18:23:59.966Z,16.55
2022-09-13T18:26:28.705Z,16.79
2022-09-13T18:29:02.043Z,16.77
2022-09-13T18:31:31.166Z,16.72
2022-09-13T18:34:01.929Z,16.52
2022-09-13T18:36:31.084Z,16.52
2022-09-13T18:38:58.323Z,16.61
2022-09-13T18:41:35.301Z,16.61
2022-09-13T18:44:02.699Z,16.59
2022-09-13T18:46:31.911Z,16.50
2022-09-13T18:48:59.472Z,16.55
2022-09-13T18:51:37.946Z,16.54
2022-09-13T18:54:06.939Z,16.51
2022-09-13T18:56:35.035Z,16.42
2022-09-13T18:59:04.852Z,16.52
2022-09-13T19:01:35.117Z,16.47
2022-09-13T19:04:05.989Z,16.48
2022-09-13T19:06:35.007Z,16.46
2022-09-13T19:09:03.291Z,16.36
2022-09-13T19:11:51.771Z,16.39
2022-09-13T19:14:23.452Z,16.36
2022-09-13T19:16:52.548Z,16.35
2022-09-13T19:19:19.694Z,16.33
2022-09-13T19:21:47.286Z,16.27
2022-09-13T19:24:19.476Z,16.21
2022-09-13T19:26:50.958Z,16.34
2022-09-13T19:29:21.196Z,16.32
2022-09-13T19:31:49.609Z,16.31
2022-09-13T19:34:19.530Z,16.25
2022-09-13T19:36:49.118Z,16.32
2022-09-13T19:39:16.468Z,16.32
2022-09-13T19:41:43.662Z,16.31
2022-09-13T19:44:12.884Z,16.31
2022-09-13T19:46:40.835Z,16.32
2022-09-13T19:49:08.842Z,16.31
2022-09-13T19:51:38.718Z,16.34
2022-09-13T19:54:08.094Z,16.34
2022-09-13T19:56:40.614Z,15.89
2022-09-13T19:59:09.837Z,16.31
2022-09-13T20:01:42.685Z,16.32
2022-09-13T20:04:18.790Z,16.31
2022-09-13T20:06:50.986Z,16.31
2022-09-13T20:09:20.353Z,16.30
2022-09-13T20:11:48.871Z,16.02
2022-09-13T20:14:18.653Z,16.17
2022-09-13T20:16:46.544Z,16.32
2022-09-13T20:22:10.325Z,16.24
2022-09-13T20:24:37.599Z,16.18
2022-09-13T20:27:04.848Z,16.20
2022-09-13T20:29:32.167Z,16.15
2022-09-13T20:32:00.147Z,16.19
2022-09-13T20:34:28.205Z,16.04
2022-09-13T20:36:55.529Z,16.06
2022-09-13T20:39:22.798Z,16.15
2022-09-13T20:41:50.294Z,16.03
2022-09-13T20:44:18.203Z,16.01
2022-09-13T20:46:45.263Z,16.18
2022-09-13T20:49:12.574Z,16.17
2022-09-13T20:51:39.826Z,16.14
2022-09-13T20:54:08.065Z,15.81
2022-09-13T20:56:35.713Z,16.15
2022-09-13T20:59:04.401Z,16.14
2022-09-13T21:01:32.668Z,16.15
2022-09-13T21:04:00.699Z,16.11
2022-09-13T21:06:30.394Z,16.15
2022-09-13T21:09:00.159Z,16.16
2022-09-13T21:11:34.301Z,16.17
2022-09-13T21:14:04.614Z,16.18
2022-09-13T21:16:33.634Z,16.18
2022-09-13T21:19:01.175Z,15.81
2022-09-13T21:21:34.822Z,16.16
2022-09-13T21:24:04.734Z,16.16
2022-09-13T21:26:33.491Z,16.14
2022-09-13T21:29:01.112Z,16.03
2022-09-13T21:31:31.292Z,16.11
2022-09-13T21:34:00.366Z,15.84
2022-09-13T21:36:28.745Z,16.11
2022-09-13T21:38:56.958Z,16.12
2022-09-13T21:41:26.155Z,16.13
2022-09-13T21:43:54.264Z,16.13
2022-09-13T21:46:27.413Z,16.13
2022-09-13T21:49:00.513Z,16.13
2022-09-13T21:51:29.284Z,16.07
2022-09-13T21:53:59.399Z,16.14
2022-09-13T21:56:29.585Z,16.13
2022-09-13T21:59:02.102Z,16.13
2022-09-13T22:01:32.489Z,16.05
2022-09-13T22:04:01.591Z,16.10
2022-09-13T22:06:33.816Z,16.11
2022-09-13T22:09:03.684Z,15.99
2022-09-13T22:11:33.323Z,16.05
2022-09-13T22:14:01.006Z,16.04
2022-09-13T22:16:34.480Z,16.02
2022-09-13T22:19:09.297Z,16.05
2022-09-13T22:21:40.565Z,16.05
2022-09-13T22:24:08.894Z,16.06
2022-09-13T22:26:38.333Z,16.06
2022-09-13T22:29:05.576Z,16.06
2022-09-13T22:31:35.642Z,16.06
2022-09-13T22:34:03.779Z,16.03
2022-09-13T22:36:31.313Z,16.05
2022-09-13T22:38:58.582Z,16.02
2022-09-13T22:41:31.624Z,16.02
2022-09-13T22:44:00.384Z,15.96
2022-09-13T22:46:35.751Z,15.98
2022-09-13T22:49:04.810Z,15.95
2022-09-13T22:51:32.669Z,15.94
2022-09-13T22:54:03.734Z,15.85
2022-09-13T22:56:34.089Z,15.91
2022-09-13T22:59:07.709Z,15.91
2022-09-13T23:01:36.210Z,15.90
2022-09-13T23:04:04.042Z,15.74
2022-09-13T23:06:32.299Z,15.85
2022-09-13T23:09:02.071Z,15.83
2022-09-13T23:11:32.406Z,15.72
2022-09-13T23:14:00.788Z,15.76
2022-09-13T23:16:40.258Z,15.76
2022-09-13T23:19:07.906Z,15.58
2022-09-13T23:21:36.992Z,15.80
2022-09-13T23:24:06.119Z,15.61
2022-09-13T23:26:34.417Z,15.74
2022-09-13T23:29:03.808Z,15.87
2022-09-13T23:31:34.030Z,15.88
2022-09-13T23:34:06.377Z,15.88
2022-09-13T23:36:36.411Z,15.94
2022-09-13T23:39:05.630Z,15.89
2022-09-13T23:41:33.660Z,15.87
2022-09-13T23:44:02.091Z,15.92
2022-09-13T23:46:30.104Z,15.91
2022-09-13T23:48:57.431Z,15.89
2022-09-13T23:51:26.836Z,15.92
2022-09-13T23:53:57.273Z,15.93
2022-09-13T23:56:26.688Z,15.92
2022-09-13T23:58:55.221Z,15.91
